Time;durP1;ratioP1;P1;durP2;ratioP2;P2;SDS_P1;SDS_P2;PMS_P1;PMS_P2;Temp;Humidity;BMP_temperature;BMP_pressure;BME280_temperature;BME280_humidity;BME280_pressure;Samples;Min_cycle;Max_cycle;Signal;HPM_P1;HPM_P2
2021/04/12 00:00:24;;;;;;;1.17;0.40;;;20.50;46.00;;;;;;7709389;23;20012;-65
2021/04/12 00:03:31;;;;;;;0.20;0.20;;;20.50;46.00;;;;;;7709779;23;20058;-65
2021/04/12 00:06:50;;;;;;;0.30;0.30;;;20.50;46.00;;;;;;7710461;23;20004;-65
2021/04/12 00:10:00;;;;;;;0.47;0.30;;;20.50;46.00;;;;;;7710314;23;20071;-65
2021/04/12 00:13:11;;;;;;;0.43;0.30;;;20.50;46.00;;;;;;7709357;23;20024;-65
2021/04/12 00:16:18;;;;;;;0.30;0.30;;;20.50;46.00;;;;;;7709255;23;20018;-65
2021/04/12 00:19:31;;;;;;;0.57;0.50;;;20.50;46.00;;;;;;7710708;23;20008;-65
2021/04/12 00:22:33;;;;;;;0.80;0.50;;;20.50;46.00;;;;;;7711094;23;20009;-64
2021/04/12 00:25:42;;;;;;;0.50;0.40;;;20.50;46.00;;;;;;7710547;23;20447;-65
2021/04/12 00:28:47;;;;;;;0.43;0.43;;;20.50;46.00;;;;;;7709560;23;20004;-65
2021/04/12 00:31:51;;;;;;;;;;;20.50;45.90;;;;;;7710978;23;20028;-64
2021/04/12 00:35:01;;;;;;;0.38;0.35;;;20.50;45.80;;;;;;7708675;23;19911;-65
2021/04/12 00:38:13;;;;;;;0.30;0.30;;;20.50;45.80;;;;;;7710476;23;20092;-64
2021/04/12 00:41:32;;;;;;;0.30;0.30;;;20.50;45.90;;;;;;7710484;23;20004;-65
2021/04/12 00:44:44;;;;;;;0.57;0.47;;;20.50;46.00;;;;;;7710611;23;20043;-65
2021/04/12 00:48:11;;;;;;;0.30;0.28;;;20.50;45.90;;;;;;7710650;23;20242;-65
2021/04/12 00:51:49;;;;;;;0.38;0.35;;;20.50;45.90;;;;;;7710192;23;20448;-65
2021/04/12 00:55:01;;;;;;;0.35;0.30;;;20.50;46.00;;;;;;7710455;23;20020;-64
2021/04/12 00:58:34;;;;;;;0.32;0.32;;;20.50;46.00;;;;;;7710482;23;20004;-65
2021/04/12 01:01:46;;;;;;;0.47;0.32;;;20.50;45.90;;;;;;7710236;23;20095;-65
2021/04/12 01:04:58;;;;;;;0.40;0.35;;;20.50;46.00;;;;;;7710465;23;20421;-65
2021/04/12 01:08:34;;;;;;;0.70;0.43;;;20.40;45.90;;;;;;7710511;23;20436;-65
2021/04/12 01:11:48;;;;;;;0.40;0.32;;;20.40;45.80;;;;;;7711042;23;20421;-65
2021/04/12 01:15:18;;;;;;;0.40;0.40;;;20.50;45.90;;;;;;7712184;23;20502;-65
2021/04/12 01:18:30;;;;;;;0.20;0.20;;;20.40;45.90;;;;;;7712835;23;20013;-65
2021/04/12 01:22:02;;;;;;;0.20;0.20;;;20.40;45.90;;;;;;7712571;23;20016;-64
2021/04/12 01:25:39;;;;;;;0.77;0.30;;;20.40;45.80;;;;;;7712424;23;20008;-65
2021/04/12 01:28:57;;;;;;;0.40;0.30;;;20.40;45.90;;;;;;7713085;23;20001;-65
2021/04/12 01:32:19;;;;;;;0.30;0.28;;;20.40;46.00;;;;;;7712371;23;20096;-65
2021/04/12 01:35:58;;;;;;;0.35;0.30;;;20.40;45.90;;;;;;7712516;23;20012;-65
2021/04/12 01:39:36;;;;;;;0.77;0.30;;;20.40;45.80;;;;;;7712824;23;20008;-65
2021/04/12 01:42:39;;;;;;;0.30;0.30;;;20.40;46.00;;;;;;7677515;23;20012;-65
2021/04/12 01:45:55;;;;;;;0.40;0.30;;;20.40;46.00;;;;;;7712645;23;20011;-65
2021/04/12 01:49:18;;;;;;;0.30;0.30;;;20.40;46.80;;;;;;7712293;23;20071;-65
2021/04/12 01:52:18;;;;;;;0.50;0.40;;;20.40;46.00;;;;;;7712665;23;20013;-65
2021/04/12 01:55:40;;;;;;;0.22;0.22;;;20.40;46.00;;;;;;7711944;23;20008;-65
2021/04/12 01:58:53;;;;;;;0.30;0.30;;;20.40;45.90;;;;;;7712229;23;20436;-64
2021/04/12 02:01:54;;;;;;;0.20;0.20;;;20.40;46.00;;;;;;7712270;23;20008;-64
2021/04/12 02:05:12;;;;;;;0.20;0.20;;;20.40;46.00;;;;;;7711972;23;20004;-65
2021/04/12 02:08:40;;;;;;;0.50;0.32;;;20.40;46.00;;;;;;7712282;23;20027;-65
2021/04/12 02:11:46;;;;;;;0.30;0.30;;;20.40;46.00;;;;;;7711996;23;20009;-65
2021/04/12 02:14:56;;;;;;;0.20;0.20;;;20.40;46.00;;;;;;7711860;23;20020;-65
2021/04/12 02:18:26;;;;;;;0.20;0.20;;;20.40;46.00;;;;;;7712208;23;20000;-64
2021/04/12 02:21:32;;;;;;;1.13;0.40;;;20.40;46.00;;;;;;7711701;23;20001;-65
2021/04/12 02:24:43;;;;;;;0.28;0.28;;;20.40;46.00;;;;;;7712226;23;20424;-65
2021/04/12 02:28:00;;;;;;;0.28;0.28;;;20.40;46.00;;;;;;7712018;23;20395;-65
2021/04/12 02:31:28;;;;;;;0.32;0.20;;;20.40;46.00;;;;;;7711759;23;20000;-65
2021/04/12 02:34:38;;;;;;;0.20;0.20;;;20.40;46.10;;;;;;7711900;23;20448;-65
2021/04/12 02:37:54;;;;;;;0.75;0.40;;;20.40;46.20;;;;;;7711974;23;20068;-65
2021/04/12 02:41:11;;;;;;;0.35;0.20;;;20.40;46.20;;;;;;7711821;23;20085;-65
2021/04/12 02:44:49;;;;;;;0.10;0.10;;;20.40;45.90;;;;;;7711669;23;20035;-65
2021/04/12 02:48:14;;;;;;;0.30;0.22;;;20.40;46.10;;;;;;7711291;23;20004;-65
2021/04/12 02:51:39;;;;;;;0.28;0.28;;;20.40;46.00;;;;;;7711280;23;20437;-65
2021/04/12 02:54:52;;;;;;;0.38;0.38;;;20.40;46.10;;;;;;7711144;23;20005;-65
2021/04/12 02:58:07;;;;;;;0.40;0.20;;;20.40;46.00;;;;;;7711478;23;20004;-65
2021/04/12 03:01:21;;;;;;;;;;;20.40;46.10;;;;;;7712280;23;20436;-64
2021/04/12 03:04:40;;;;;;;0.20;0.20;;;20.40;46.10;;;;;;7711521;23;19900;-64
2021/04/12 03:07:49;;;;;;;0.22;0.20;;;20.40;46.00;;;;;;7711264;23;20001;-64
2021/04/12 03:11:27;;;;;;;0.75;0.30;;;20.40;46.20;;;;;;7711430;23;20001;-65
2021/04/12 03:14:28;;;;;;;0.73;0.25;;;20.40;46.10;;;;;;7711145;23;20012;-65
2021/04/12 03:17:40;;;;;;;0.50;0.20;;;20.40;46.10;;;;;;7711206;23;20015;-64
2021/04/12 03:21:26;;;;;;;0.60;0.30;;;20.40;46.10;;;;;;7711137;23;20317;-64
2021/04/12 03:24:32;;;;;;;0.63;0.30;;;20.40;46.10;;;;;;7711628;23;20001;-65
2021/04/12 03:27:47;;;;;;;0.28;0.20;;;20.40;46.10;;;;;;7711091;23;20008;-64
2021/04/12 03:31:14;;;;;;;0.20;0.20;;;20.40;46.10;;;;;;7711345;23;20000;-63
2021/04/12 03:34:35;;;;;;;0.20;0.20;;;20.40;46.10;;;;;;7710676;23;20127;-65
2021/04/12 03:38:00;;;;;;;0.52;0.50;;;20.40;46.10;;;;;;7710815;23;20012;-64
2021/04/12 03:41:26;;;;;;;0.20;0.20;;;20.40;46.00;;;;;;7711019;23;20005;-64
2021/04/12 03:44:48;;;;;;;0.77;0.30;;;20.40;46.00;;;;;;7710792;23;20009;-64
2021/04/12 03:48:25;;;;;;;0.20;0.20;;;20.40;46.00;;;;;;7710753;23;20062;-65
2021/04/12 03:51:50;;;;;;;0.40;0.28;;;20.40;46.00;;;;;;7710830;23;20444;-65
2021/04/12 03:55:16;;;;;;;0.65;0.40;;;20.40;46.00;;;;;;7710567;23;20019;-64
2021/04/12 03:58:55;;;;;;;0.17;0.17;;;20.40;46.00;;;;;;7710960;23;20000;-65
2021/04/12 04:02:27;;;;;;;1.85;0.17;;;20.40;46.00;;;;;;7710916;23;20015;-65
2021/04/12 04:05:27;;;;;;;0.20;0.10;;;20.30;46.00;;;;;;7711097;23;20008;-65
2021/04/12 04:08:36;;;;;;;0.20;0.20;;;20.40;46.10;;;;;;7710371;23;20005;-65
2021/04/12 04:12:03;;;;;;;0.43;0.25;;;20.40;46.00;;;;;;7710962;23;20007;-65
2021/04/12 04:15:21;;;;;;;1.00;0.28;;;20.40;46.00;;;;;;7710951;23;20090;-65
2021/04/12 04:18:54;;;;;;;0.30;0.20;;;20.40;46.10;;;;;;7710606;23;20458;-65
2021/04/12 04:22:06;;;;;;;0.47;0.30;;;20.40;46.00;;;;;;7711164;23;20088;-65
2021/04/12 04:25:27;;;;;;;0.20;0.20;;;20.40;45.90;;;;;;7711044;23;20008;-65
2021/04/12 04:28:32;;;;;;;0.13;0.10;;;20.40;45.90;;;;;;7710767;23;20009;-65
2021/04/12 04:31:47;;;;;;;0.63;0.37;;;20.40;45.90;;;;;;7710869;23;20028;-65
2021/04/12 04:35:06;;;;;;;;;;;20.40;45.90;;;;;;7711323;23;20432;-64
2021/04/12 04:38:19;;;;;;;0.20;0.20;;;20.40;45.80;;;;;;7710112;23;19911;-65
2021/04/12 04:41:39;;;;;;;0.17;0.15;;;20.40;45.90;;;;;;7710035;23;20032;-65
2021/04/12 04:45:10;;;;;;;0.20;0.20;;;20.40;45.90;;;;;;7710254;23;20005;-65
2021/04/12 04:48:37;;;;;;;0.22;0.20;;;20.40;45.90;;;;;;7711962;23;20356;-65
2021/04/12 04:52:12;;;;;;;0.50;0.30;;;20.40;45.90;;;;;;7712820;23;20040;-64
2021/04/12 04:55:26;;;;;;;0.20;0.20;;;20.40;45.90;;;;;;7669384;23;20020;-65
2021/04/12 04:58:32;;;;;;;0.32;0.20;;;20.40;45.90;;;;;;7713554;23;20000;-65
2021/04/12 05:02:00;;;;;;;0.20;0.20;;;20.40;46.00;;;;;;7712947;23;20051;-65
2021/04/12 05:05:24;;;;;;;0.60;0.20;;;20.40;46.00;;;;;;7712905;23;20393;-64
2021/04/12 05:09:03;;;;;;;0.55;0.40;;;20.40;46.00;;;;;;7712809;23;20004;-65
2021/04/12 05:12:28;;;;;;;0.70;0.30;;;20.40;46.00;;;;;;7712718;23;20015;-65
2021/04/12 05:16:11;;;;;;;0.20;0.20;;;20.40;45.90;;;;;;7712719;23;20039;-65
2021/04/12 05:19:33;;;;;;;1.02;0.25;;;20.40;46.00;;;;;;7616728;23;20301;-65
2021/04/12 05:22:57;;;;;;;0.20;0.20;;;20.40;46.00;;;;;;7712691;23;20032;-65
2021/04/12 05:26:21;;;;;;;0.30;0.20;;;20.40;45.90;;;;;;7711010;23;20420;-65
2021/04/12 05:29:40;;;;;;;0.20;0.20;;;20.40;46.00;;;;;;7709811;23;20008;-65
2021/04/12 05:33:09;;;;;;;0.40;0.20;;;20.40;45.90;;;;;;7711575;23;20420;-65
2021/04/12 05:36:40;;;;;;;0.30;0.30;;;20.40;45.90;;;;;;7712810;23;20023;-65
2021/04/12 05:39:49;;;;;;;0.65;0.20;;;20.40;45.80;;;;;;7712353;23;20344;-65
2021/04/12 05:43:14;;;;;;;0.28;0.20;;;20.40;45.90;;;;;;7712527;23;20001;-66
2021/04/12 05:46:57;;;;;;;0.10;0.10;;;20.40;45.90;;;;;;7712556;23;20080;-64
2021/04/12 05:50:22;;;;;;;0.30;0.30;;;20.40;46.00;;;;;;7711873;23;20330;-65
2021/04/12 05:53:47;;;;;;;0.75;0.20;;;20.40;45.90;;;;;;7712574;23;20103;-65
2021/04/12 05:57:25;;;;;;;1.85;0.32;;;20.40;46.60;;;;;;7712309;23;20020;-65
2021/04/12 06:00:29;;;;;;;0.30;0.20;;;20.40;45.90;;;;;;7712607;23;20004;-65
2021/04/12 06:04:07;;;;;;;0.30;0.20;;;20.40;45.90;;;;;;7713869;23;20085;-64
2021/04/12 06:07:29;;;;;;;0.20;0.20;;;20.40;45.90;;;;;;7702396;23;19993;-65
2021/04/12 06:11:03;;;;;;;0.77;0.38;;;20.40;45.90;;;;;;7710790;23;20000;-65
2021/04/12 06:14:28;;;;;;;8.52;0.30;;;20.40;46.00;;;;;;7712976;23;20015;-65
2021/04/12 06:18:06;;;;;;;1.00;0.30;;;20.40;46.00;;;;;;7712411;23;20016;-65
2021/04/12 06:21:27;;;;;;;0.65;0.47;;;20.40;45.90;;;;;;7713113;23;20009;-65
2021/04/12 06:25:07;;;;;;;0.95;0.20;;;20.40;45.90;;;;;;7713066;23;20027;-65
2021/04/12 06:28:46;;;;;;;0.52;0.20;;;20.40;46.10;;;;;;7711569;23;20012;-65
2021/04/12 06:32:28;;;;;;;0.25;0.20;;;20.40;46.10;;;;;;7711033;23;20091;-65
2021/04/12 06:35:46;;;;;;;0.30;0.20;;;20.40;46.10;;;;;;7712294;23;20360;-64
2021/04/12 06:38:49;;;;;;;2.05;0.20;;;20.40;46.20;;;;;;7712003;23;20091;-64
2021/04/12 06:42:26;;;;;;;1.20;0.28;;;20.40;46.10;;;;;;7712541;23;20012;-65
2021/04/12 06:45:57;;;;;;;0.30;0.20;;;20.40;46.20;;;;;;7712537;23;20009;-65
2021/04/12 06:49:10;;;;;;;1.77;0.38;;;20.40;46.30;;;;;;7711727;23;20004;-65
2021/04/12 06:52:32;;;;;;;1.13;0.40;;;20.40;46.40;;;;;;7712312;23;20341;-65
2021/04/12 06:55:54;;;;;;;0.20;0.20;;;20.40;46.50;;;;;;7711801;23;20333;-65
2021/04/12 06:59:16;;;;;;;1.77;0.30;;;20.40;46.40;;;;;;7712647;23;20011;-65
2021/04/12 07:02:58;;;;;;;2.85;0.30;;;20.40;46.40;;;;;;7712082;23;20009;-65
2021/04/12 07:06:29;;;;;;;0.50;0.30;;;20.40;46.50;;;;;;7711955;23;20004;-65
2021/04/12 07:09:50;;;;;;;0.45;0.30;;;20.40;46.40;;;;;;7711447;23;20009;-65
2021/04/12 07:12:58;;;;;;;0.50;0.10;;;20.40;46.40;;;;;;7712158;23;20420;-65
2021/04/12 07:16:32;;;;;;;1.45;0.30;;;20.40;46.30;;;;;;7710864;23;20062;-65
2021/04/12 07:20:03;;;;;;;0.25;0.20;;;20.40;46.30;;;;;;7712133;23;20347;-65
2021/04/12 07:23:37;;;;;;;0.77;0.20;;;20.40;46.30;;;;;;7711944;23;20005;-65
2021/04/12 07:26:56;;;;;;;0.52;0.25;;;20.40;46.30;;;;;;7711297;23;20386;-65
2021/04/12 07:30:26;;;;;;;0.30;0.20;;;20.40;46.30;;;;;;7711370;23;19996;-64
2021/04/12 07:33:58;;;;;;;1.27;0.30;;;20.40;46.30;;;;;;7712529;23;20001;-65
2021/04/12 07:37:37;;;;;;;0.45;0.35;;;20.40;46.30;;;;;;7697291;23;20020;-65
2021/04/12 07:41:07;;;;;;;1.10;0.20;;;20.40;46.30;;;;;;7710976;23;20379;-64
2021/04/12 07:44:35;;;;;;;0.70;0.20;;;20.40;46.30;;;;;;7710243;23;20005;-65
2021/04/12 07:47:47;;;;;;;1.17;0.30;;;20.40;46.30;;;;;;7711370;23;20432;-65
2021/04/12 07:51:13;;;;;;;0.88;0.38;;;20.40;46.30;;;;;;7710879;23;20012;-65
2021/04/12 07:54:19;;;;;;;0.50;0.25;;;20.40;46.40;;;;;;7710883;23;20444;-65
2021/04/12 07:57:49;;;;;;;0.75;0.30;;;20.40;46.40;;;;;;7710791;23;20123;-65
2021/04/12 08:01:27;;;;;;;0.20;0.20;;;20.40;46.40;;;;;;7711632;23;20440;-65
2021/04/12 08:04:53;;;;;;;0.28;0.10;;;20.40;46.40;;;;;;7712793;23;20227;-65
2021/04/12 08:08:17;;;;;;;;;;;20.40;46.40;;;;;;7712980;23;20494;-65
2021/04/12 08:11:55;;;;;;;0.52;0.20;;;20.40;46.40;;;;;;7712615;23;20002;-65
2021/04/12 08:15:27;;;;;;;2.95;0.20;;;20.40;46.40;;;;;;7712610;23;20004;-65
2021/04/12 08:18:27;;;;;;;2.08;0.30;;;20.40;46.40;;;;;;7712785;23;20436;-65
2021/04/12 08:22:09;;;;;;;0.50;0.20;;;20.40;46.40;;;;;;7712961;23;20012;-65
2021/04/12 08:25:28;;;;;;;2.28;0.30;;;20.40;46.40;;;;;;7712790;23;20007;-65
2021/04/12 08:29:01;;;;;;;0.30;0.30;;;20.40;46.40;;;;;;7711229;23;20023;-65
2021/04/12 08:32:39;;;;;;;2.47;0.50;;;20.40;46.30;;;;;;7712787;23;20530;-65
2021/04/12 08:36:20;;;;;;;1.02;0.40;;;20.40;46.80;;;;;;7712277;23;20001;-65
2021/04/12 08:39:35;;;;;;;3.55;1.08;;;20.30;46.10;;;;;;7680174;23;20008;-64
2021/04/12 08:42:39;;;;;;;7.55;0.95;;;20.30;44.50;;;;;;7712650;23;20004;-65
2021/04/12 08:46:01;;;;;;;6.90;1.25;;;20.30;43.60;;;;;;7710330;23;20004;-65
2021/04/12 08:49:11;;;;;;;3.80;1.10;;;20.30;42.10;;;;;;7711024;23;20455;-65
2021/04/12 08:52:29;;;;;;;7.68;1.00;;;20.30;41.60;;;;;;7710475;23;20008;-65
2021/04/12 08:55:35;;;;;;;3.22;1.08;;;20.30;41.90;;;;;;7711652;23;20043;-65
2021/04/12 08:59:09;;;;;;;3.55;1.10;;;20.30;42.40;;;;;;7711377;23;20004;-65
2021/04/12 09:02:32;;;;;;;3.33;1.00;;;20.30;42.70;;;;;;7710917;23;20461;-64
2021/04/12 09:06:00;;;;;;;3.55;0.77;;;20.30;43.10;;;;;;7711141;23;20028;-64
2021/04/12 09:09:30;;;;;;;3.33;0.68;;;20.40;43.40;;;;;;7711049;23;20409;-65
2021/04/12 09:12:55;;;;;;;2.58;0.70;;;20.40;43.10;;;;;;7664080;23;20411;-65
2021/04/12 09:16:23;;;;;;;1.77;0.60;;;20.40;43.10;;;;;;7709732;23;20015;-64
2021/04/12 09:19:51;;;;;;;2.80;0.68;;;20.50;43.20;;;;;;7709061;23;20330;-65
2021/04/12 09:23:16;;;;;;;1.40;0.57;;;20.50;43.30;;;;;;7710889;23;20032;-64
2021/04/12 09:26:50;;;;;;;2.85;0.80;;;20.50;43.50;;;;;;7709386;23;20362;-64
2021/04/12 09:30:17;;;;;;;1.67;0.70;;;20.50;43.60;;;;;;7710435;23;20028;-64
2021/04/12 09:33:49;;;;;;;1.55;0.50;;;20.50;43.60;;;;;;7711419;23;20000;-65
2021/04/12 09:37:07;;;;;;;3.15;0.70;;;20.50;43.60;;;;;;7713555;23;20013;-66
2021/04/12 09:40:23;;;;;;;3.50;0.60;;;20.50;43.60;;;;;;7713201;23;20008;-65
2021/04/12 09:43:52;;;;;;;3.58;0.80;;;20.50;44.10;;;;;;7713428;23;20011;-65
2021/04/12 09:47:20;;;;;;;2.72;0.77;;;20.60;44.10;;;;;;7712178;23;20314;-64
2021/04/12 09:50:58;;;;;;;2.50;0.85;;;20.50;44.20;;;;;;7710915;23;20016;-65
2021/04/12 09:54:20;;;;;;;1.58;0.60;;;20.50;44.30;;;;;;7713509;23;20059;-65
2021/04/12 09:57:45;;;;;;;2.22;0.88;;;20.50;44.40;;;;;;7711522;23;20012;-64
2021/04/12 10:00:51;;;;;;;3.90;0.70;;;20.50;44.40;;;;;;7711691;23;20001;-65
2021/04/12 10:04:21;;;;;;;1.58;0.60;;;20.50;44.40;;;;;;7713146;23;20012;-64
2021/04/12 10:07:47;;;;;;;2.10;0.60;;;20.50;44.50;;;;;;7713022;23;20079;-65
2021/04/12 10:10:58;;;;;;;1.17;0.47;;;20.50;44.60;;;;;;7713076;23;20769;-64
2021/04/12 10:14:14;;;;;;;2.03;0.70;;;20.50;44.60;;;;;;7712604;23;20011;-65
2021/04/12 10:17:19;;;;;;;1.45;0.80;;;20.50;44.50;;;;;;7712209;23;20016;-65
2021/04/12 10:20:28;;;;;;;0.98;0.65;;;20.50;44.60;;;;;;7712496;23;20050;-65
2021/04/12 10:23:34;;;;;;;0.85;0.43;;;20.50;44.60;;;;;;7712560;23;20012;-65
2021/04/12 10:26:42;;;;;;;2.63;0.60;;;20.40;44.60;;;;;;7710548;23;20008;-65
2021/04/12 10:29:54;;;;;;;2.28;0.73;;;20.50;44.70;;;;;;7711944;23;20095;-64
2021/04/12 10:33:02;;;;;;;0.95;0.45;;;20.50;44.90;;;;;;7710302;23;20448;-65
2021/04/12 10:36:08;;;;;;;1.05;0.50;;;20.50;44.70;;;;;;7710484;23;20009;-65
2021/04/12 10:39:23;;;;;;;2.10;0.75;;;20.40;44.70;;;;;;7710634;23;20332;-65
2021/04/12 10:42:51;;;;;;;1.13;0.60;;;20.40;44.80;;;;;;7709454;23;20011;-65
2021/04/12 10:46:02;;;;;;;1.52;0.70;;;20.40;44.80;;;;;;7710050;23;20000;-65
2021/04/12 10:49:15;;;;;;;1.90;0.70;;;20.40;44.80;;;;;;7711341;23;20825;-65
2021/04/12 10:52:40;;;;;;;0.75;0.38;;;20.40;44.80;;;;;;7710711;23;20008;-65
2021/04/12 10:55:46;;;;;;;0.77;0.50;;;20.40;45.00;;;;;;7710279;23;20000;-65
2021/04/12 10:58:56;;;;;;;0.75;0.40;;;20.40;45.00;;;;;;7711289;23;20502;-65
2021/04/12 11:02:07;;;;;;;1.45;0.50;;;20.40;45.20;;;;;;7710599;23;20024;-64
2021/04/12 11:05:10;;;;;;;1.65;0.60;;;20.40;45.20;;;;;;7711001;23;20003;-65
2021/04/12 11:08:26;;;;;;;0.47;0.40;;;20.40;45.10;;;;;;7710286;23;20083;-65
2021/04/12 11:11:38;;;;;;;0.57;0.38;;;20.40;45.20;;;;;;7710641;23;20333;-65
2021/04/12 11:14:57;;;;;;;1.95;0.50;;;20.40;45.10;;;;;;7711451;23;20019;-64
2021/04/12 11:18:20;;;;;;;1.23;0.50;;;20.40;45.20;;;;;;7710365;23;20009;-65
2021/04/12 11:21:36;;;;;;;2.60;0.63;;;20.40;45.30;;;;;;7694964;23;20071;-65
2021/04/12 11:24:49;;;;;;;2.15;0.60;;;20.40;45.30;;;;;;7712338;23;20012;-65
2021/04/12 11:28:12;;;;;;;0.77;0.45;;;20.40;45.30;;;;;;7711791;23;20031;-65
2021/04/12 11:31:29;;;;;;;2.08;0.60;;;20.40;45.30;;;;;;7712525;23;20080;-65
2021/04/12 11:35:03;;;;;;;2.05;0.70;;;20.40;45.30;;;;;;7711883;23;20436;-65
2021/04/12 11:38:07;;;;;;;0.82;0.40;;;20.40;45.30;;;;;;7691443;23;20044;-65
2021/04/12 11:41:21;;;;;;;0.68;0.47;;;20.40;45.30;;;;;;7711862;23;20100;-65
2021/04/12 11:44:34;;;;;;;1.10;0.60;;;20.40;45.40;;;;;;7708871;23;20080;-65
2021/04/12 11:47:47;;;;;;;1.75;0.60;;;20.40;45.50;;;;;;7711135;23;20004;-65
2021/04/12 11:51:09;;;;;;;1.35;0.55;;;20.40;45.40;;;;;;7710438;23;20024;-65
2021/04/12 11:54:10;;;;;;;4.00;0.50;;;20.40;45.40;;;;;;7710008;23;20012;-65
2021/04/12 11:57:52;;;;;;;2.08;0.65;;;20.40;45.60;;;;;;7709396;23;20047;-64
2021/04/12 12:01:07;;;;;;;1.73;0.60;;;20.40;45.80;;;;;;7710305;23;20007;-64
2021/04/12 12:04:30;;;;;;;3.75;0.60;;;20.50;45.90;;;;;;7710364;23;20004;-65
2021/04/12 12:07:48;;;;;;;8.57;0.82;;;20.50;45.50;;;;;;7708159;23;20067;-64
2021/04/12 12:11:04;;;;;;;5.13;2.08;;;20.50;45.20;;;;;;7708877;23;20427;-65
2021/04/12 12:14:21;;;;;;;19.25;8.95;;;20.50;45.20;;;;;;7709433;23;20005;-65
2021/04/12 12:17:25;;;;;;;34.00;15.32;;;20.50;45.30;;;;;;7711325;23;20333;-65
2021/04/12 12:20:43;;;;;;;35.47;17.38;;;20.50;45.20;;;;;;7711344;23;20007;-65
2021/04/12 12:23:58;;;;;;;48.75;24.35;;;20.50;45.20;;;;;;7711018;23;20005;-65
2021/04/12 12:27:10;;;;;;;72.03;33.13;;;20.50;45.30;;;;;;7711189;23;20005;-65
2021/04/12 12:30:18;;;;;;;43.33;20.60;;;20.50;45.20;;;;;;7711308;23;20009;-65
2021/04/12 12:33:28;;;;;;;42.20;20.90;;;20.50;45.10;;;;;;7710952;23;20495;-65
2021/04/12 12:36:49;;;;;;;51.20;25.33;;;20.50;45.30;;;;;;7710784;23;20229;-65
2021/04/12 12:39:57;;;;;;;54.25;23.38;;;20.60;45.60;;;;;;7711000;23;20001;-65
2021/04/12 12:43:04;;;;;;;51.15;23.75;;;20.60;45.50;;;;;;7710901;23;20001;-65
2021/04/12 12:46:21;;;;;;;55.15;25.30;;;20.60;45.20;;;;;;7707016;23;20447;-65
2021/04/12 12:49:28;;;;;;;50.28;23.80;;;20.60;45.30;;;;;;7711472;23;20028;-65
2021/04/12 12:52:37;;;;;;;51.80;24.27;;;20.60;45.40;;;;;;7711607;23;20020;-64
2021/04/12 12:55:45;;;;;;;55.55;25.80;;;20.60;45.30;;;;;;7710183;23;20005;-65
2021/04/12 12:59:02;;;;;;;56.15;24.25;;;20.60;45.60;;;;;;7710213;23;20108;-65
2021/04/12 13:02:30;;;;;;;48.90;22.83;;;20.60;45.80;;;;;;7711148;23;20005;-65
2021/04/12 13:05:35;;;;;;;46.88;23.15;;;20.60;45.40;;;;;;7710007;23;20001;-65
2021/04/12 13:08:36;;;;;;;50.42;22.65;;;20.60;45.40;;;;;;7711816;23;20004;-64
2021/04/12 13:11:48;;;;;;;51.33;23.63;;;20.60;45.40;;;;;;7712150;23;20000;-65
2021/04/12 13:14:51;;;;;;;51.78;23.40;;;20.60;45.50;;;;;;7713048;23;20008;-65
2021/04/12 13:17:53;;;;;;;45.40;21.52;;;20.60;45.50;;;;;;7713165;23;20382;-65
2021/04/12 13:21:05;;;;;;;39.92;20.23;;;20.60;45.50;;;;;;7711546;23;20084;-65
2021/04/12 13:24:15;;;;;;;45.70;21.20;;;20.60;45.50;;;;;;7711544;23;20047;-64
2021/04/12 13:27:24;;;;;;;42.83;19.80;;;20.60;45.50;;;;;;7712836;23;20004;-65
2021/04/12 13:30:28;;;;;;;37.25;18.73;;;20.60;45.60;;;;;;7712659;23;20368;-64
2021/04/12 13:33:41;;;;;;;38.42;19.17;;;20.60;45.50;;;;;;7712905;23;20344;-65
2021/04/12 13:36:46;;;;;;;40.70;19.75;;;20.60;45.50;;;;;;7711258;23;20012;-65
2021/04/12 13:40:00;;;;;;;41.05;19.15;;;20.60;45.50;;;;;;7713282;23;20028;-65
2021/04/12 13:43:03;;;;;;;36.70;19.33;;;20.60;45.50;;;;;;7712422;23;20004;-65
2021/04/12 13:46:21;;;;;;;40.30;19.05;;;20.60;45.50;;;;;;7712283;23;20047;-65
2021/04/12 13:49:36;;;;;;;37.40;18.00;;;20.60;45.50;;;;;;7711931;23;20094;-65
2021/04/12 13:52:43;;;;;;;;;;;20.60;45.60;;;;;;7713268;23;20004;-65
2021/04/12 13:55:52;;;;;;;38.25;18.63;;;20.60;45.60;;;;;;7711230;23;19912;-64
2021/04/12 13:59:27;;;;;;;39.00;18.23;;;20.60;45.60;;;;;;7712578;23;20015;-65
2021/04/12 14:02:33;;;;;;;31.13;16.40;;;20.60;45.60;;;;;;7687181;23;20009;-65
2021/04/12 14:05:35;;;;;;;;;;;20.60;45.60;;;;;;7711408;23;20005;-65
2021/04/12 14:08:53;;;;;;;32.03;15.57;;;20.60;45.60;;;;;;7712066;23;19904;-65
2021/04/12 14:12:20;;;;;;;32.22;16.17;;;20.60;45.60;;;;;;7709782;23;20080;-65
2021/04/12 14:15:35;;;;;;;34.58;15.88;;;20.60;45.50;;;;;;7710256;23;20016;-65
2021/04/12 14:18:48;;;;;;;32.20;16.08;;;20.60;45.50;;;;;;7711614;23;20000;-65
2021/04/12 14:21:51;;;;;;;29.45;15.45;;;20.60;45.50;;;;;;7711285;23;20008;-65
2021/04/12 14:24:57;;;;;;;27.60;13.40;;;20.60;45.50;;;;;;7708597;23;20007;-64
2021/04/12 14:28:19;;;;;;;28.58;14.40;;;20.60;45.50;;;;;;7711066;23;20113;-65
2021/04/12 14:31:33;;;;;;;27.48;13.63;;;20.60;45.60;;;;;;7710373;23;20042;-65
2021/04/12 14:34:41;;;;;;;25.50;12.60;;;20.60;45.20;;;;;;7711572;23;20063;-65
2021/04/12 14:37:42;;;;;;;31.67;13.30;;;20.60;43.90;;;;;;7709647;23;20043;-65
2021/04/12 14:40:52;;;;;;;29.08;13.02;;;20.60;44.50;;;;;;7708439;23;20000;-64
2021/04/12 14:44:03;;;;;;;28.92;11.57;;;20.60;45.10;;;;;;7710878;23;20054;-65
2021/04/12 14:47:32;;;;;;;23.63;11.82;;;20.60;44.30;;;;;;7710429;23;20054;-65
2021/04/12 14:50:34;;;;;;;26.15;11.77;;;20.60;45.00;;;;;;7707791;23;20048;-65
2021/04/12 14:53:40;;;;;;;22.63;11.77;;;20.70;44.80;;;;;;7710429;23;20001;-65
2021/04/12 14:56:46;;;;;;;23.15;11.95;;;20.60;44.60;;;;;;7709682;23;20020;-65
2021/04/12 15:00:14;;;;;;;22.98;11.27;;;20.70;45.00;;;;;;7710687;23;20095;-65
2021/04/12 15:03:58;;;;;;;20.88;10.48;;;20.60;45.00;;;;;;7709880;23;20432;-65
2021/04/12 15:07:07;;;;;;;21.30;10.65;;;20.60;45.10;;;;;;7704511;23;20013;-65
2021/04/12 15:10:32;;;;;;;23.77;10.40;;;20.70;45.10;;;;;;7711216;23;20007;-65
2021/04/12 15:14:00;;;;;;;23.95;11.23;;;20.60;45.10;;;;;;7709240;23;20076;-64
2021/04/12 15:17:09;;;;;;;20.92;10.45;;;20.60;45.20;;;;;;7709950;23;20036;-65
2021/04/12 15:20:30;;;;;;;21.13;9.63;;;20.70;45.30;;;;;;7710891;23;20001;-65
2021/04/12 15:23:37;;;;;;;19.38;9.10;;;20.70;45.40;;;;;;7710127;23;20387;-65
2021/04/12 15:26:51;;;;;;;19.10;8.48;;;20.70;45.60;;;;;;7709717;23;20063;-65
2021/04/12 15:30:03;;;;;;;20.02;8.90;;;20.60;45.60;;;;;;7710041;23;20083;-65
2021/04/12 15:33:12;;;;;;;17.52;8.85;;;20.60;45.60;;;;;;7710168;23;20004;-65
2021/04/12 15:36:31;;;;;;;16.95;9.02;;;20.70;45.50;;;;;;7710038;23;20012;-65
2021/04/12 15:39:34;;;;;;;18.35;8.68;;;20.60;45.40;;;;;;7709598;23;20009;-65
2021/04/12 15:42:41;;;;;;;17.40;8.32;;;20.70;45.30;;;;;;7709601;23;20016;-65
2021/04/12 15:46:06;;;;;;;16.60;8.25;;;20.70;45.20;;;;;;7709855;23;20498;-65
2021/04/12 15:49:12;;;;;;;14.13;7.23;;;20.60;45.20;;;;;;7709693;23;20040;-65
2021/04/12 15:52:23;;;;;;;14.88;7.85;;;20.60;45.20;;;;;;7709817;23;20092;-65
2021/04/12 15:55:30;;;;;;;14.18;7.38;;;20.60;45.20;;;;;;7711410;23;20051;-65
2021/04/12 15:58:34;;;;;;;19.13;7.88;;;20.60;45.40;;;;;;7711154;23;20034;-65
2021/04/12 16:01:58;;;;;;;15.90;7.38;;;20.60;45.40;;;;;;7711625;23;20007;-65
2021/04/12 16:05:18;;;;;;;16.10;7.43;;;20.60;45.60;;;;;;7709236;23;20008;-65
2021/04/12 16:08:38;;;;;;;16.95;7.20;;;20.60;45.60;;;;;;7710325;23;20313;-65
2021/04/12 16:11:51;;;;;;;12.23;7.00;;;20.60;45.60;;;;;;7709433;23;20012;-65
2021/04/12 16:15:10;;;;;;;14.50;7.50;;;20.60;45.60;;;;;;7707168;23;20067;-65
2021/04/12 16:18:25;;;;;;;14.68;6.90;;;20.60;45.60;;;;;;7708294;23;20008;-65
2021/04/12 16:21:25;;;;;;;14.27;6.65;;;20.60;45.60;;;;;;7709117;23;20332;-65
2021/04/12 16:25:05;;;;;;;13.52;6.60;;;20.60;45.50;;;;;;7707120;23;20000;-65
2021/04/12 16:28:23;;;;;;;13.13;6.25;;;20.60;45.60;;;;;;7705068;23;20010;-65
2021/04/12 16:31:30;;;;;;;16.42;6.45;;;20.60;45.60;;;;;;7707568;23;20000;-65
2021/04/12 16:34:33;;;;;;;17.35;6.80;;;20.60;45.60;;;;;;7706499;23;20005;-66
2021/04/12 16:37:43;;;;;;;15.18;7.00;;;20.60;45.60;;;;;;7707250;23;20012;-65
2021/04/12 16:40:56;;;;;;;13.23;5.82;;;20.60;45.60;;;;;;7705461;23;20005;-65
2021/04/12 16:44:07;;;;;;;13.05;6.70;;;20.60;45.70;;;;;;7708831;23;20589;-65
2021/04/12 16:47:15;;;;;;;11.25;6.35;;;20.60;45.70;;;;;;7710221;23;20000;-65
2021/04/12 16:50:27;;;;;;;22.23;6.13;;;20.60;45.70;;;;;;7710347;23;20025;-65
2021/04/12 16:53:34;;;;;;;12.98;5.85;;;20.60;45.80;;;;;;7709273;23;20356;-65
2021/04/12 16:56:54;;;;;;;12.57;5.82;;;20.60;45.60;;;;;;7710147;23;20019;-65
2021/04/12 17:00:12;;;;;;;9.63;5.47;;;20.60;45.70;;;;;;7710079;23;20021;-65
2021/04/12 17:03:25;;;;;;;13.00;5.82;;;20.60;45.60;;;;;;7709247;23;20001;-65
2021/04/12 17:06:42;;;;;;;11.07;5.40;;;20.60;45.70;;;;;;7708995;23;20008;-65